KWVI/WVI METAR and TAF weather

Enter ICAO airport designator
Station Type Date Time Source
KWVI METAR 2019/06/17 06:31 UTC NOAA

KWVI 170631Z AUTO 17004KT 9SM OVC004 12/11 A2988 RMK AO2 T01220106 $


Station Type Date Time Source
KWVI Decoded METAR 2019/06/17 06:31 UTC NOAA

WATSONVILLE MUNICIPAL AIRPORT , CA, United States (KWVI) 36-56N 121-47W 43M
Jun 17, 2019 - 02:31 AM EDT / 2019.06.17 0631 UTC
Wind: from the S (170 degrees) at 5 MPH (4 KT):0
Visibility: 9 mile(s):0
Sky conditions: overcast
Temperature: 54.0 F (12.2 C)
Dew Point: 51.1 F (10.6 C)
Relative Humidity: 89%
Pressure (altimeter): 29.88 in. Hg (1011 hPa)
ob: KWVI 170631Z AUTO 17004KT 9SM OVC004 12/11 A2988 RMK AO2 T01220106
cycle: 6

Station Type Date Time Source
KWVI TAF UTC NOAA

Error!

Example: see airport list